Flugplatz Flensburg-Schäferhaus

Für EDXF sind keine METAR/TAF Berichte vorhanden.
Es werden die Flugwettermeldungen vom Flugplatz Schleswig Airport in 36 km Entfernung angezeigt.

Bericht für ETNS

vom 07.03. um 02:20 UTC

Wind 15 kt aus 290°

Temperatur 3.0°C

Taupunkt -2.0°C

Luftfeuchtigkeit 70%

Luftdruck 1023 hPa

ETNS 070220Z AUTO 29015KT //// // ////// 03/M02 Q1023 ///
Keine Prognose (TAF) verfügbar.
Impressum